createdAt,value
2018-06-21T00:00:59.286Z,18.50
2018-06-21T00:03:03.383Z,18.40
2018-06-21T00:05:07.392Z,18.40
2018-06-21T00:07:11.647Z,18.50
2018-06-21T00:09:16.255Z,18.40
2018-06-21T00:11:20.561Z,18.50
2018-06-21T00:13:24.993Z,18.60
2018-06-21T00:15:29.235Z,18.80
2018-06-21T00:17:33.869Z,18.80
2018-06-21T00:19:38.178Z,18.90
2018-06-21T00:21:42.506Z,18.90
2018-06-21T00:23:46.815Z,19.00
2018-06-21T00:27:54.760Z,18.60
2018-06-21T00:29:59.010Z,18.40
2018-06-21T00:32:03.296Z,18.30
2018-06-21T00:34:07.574Z,18.30
2018-06-21T00:36:11.853Z,18.30
2018-06-21T00:38:16.154Z,18.20
2018-06-21T00:40:20.469Z,18.20
2018-06-21T00:42:24.784Z,18.30
2018-06-21T00:44:29.203Z,18.40
2018-06-21T00:46:33.511Z,18.30
2018-06-21T00:48:37.929Z,18.30
2018-06-21T00:50:42.210Z,18.30
2018-06-21T00:52:46.462Z,18.40
2018-06-21T00:54:50.846Z,18.30
2018-06-21T00:56:55.116Z,18.30
2018-06-21T01:01:04.031Z,18.40
2018-06-21T01:03:07.993Z,18.30
2018-06-21T01:05:12.113Z,18.30
2018-06-21T01:07:16.852Z,18.40
2018-06-21T01:09:21.107Z,18.40
2018-06-21T01:13:29.270Z,18.30
2018-06-21T01:15:33.742Z,18.30
2018-06-21T01:17:37.729Z,18.30
2018-06-21T01:19:41.714Z,18.30
2018-06-21T01:21:46.054Z,18.30
2018-06-21T01:23:50.394Z,18.30
2018-06-21T01:25:54.516Z,18.30
2018-06-21T01:27:58.809Z,18.40
2018-06-21T01:32:06.988Z,18.50
2018-06-21T01:34:11.534Z,18.50
2018-06-21T01:36:15.830Z,18.50
2018-06-21T01:38:20.130Z,18.50
2018-06-21T01:40:24.447Z,18.40
2018-06-21T01:42:28.717Z,18.50
2018-06-21T01:44:33.027Z,18.50
2018-06-21T01:46:37.405Z,18.50
2018-06-21T01:48:41.402Z,18.40
2018-06-21T01:50:45.582Z,18.40
2018-06-21T01:52:49.843Z,18.30
2018-06-21T01:54:54.159Z,18.30
2018-06-21T01:56:58.754Z,18.30
2018-06-21T01:59:03.112Z,18.20
2018-06-21T02:01:07.386Z,18.20
2018-06-21T02:03:11.641Z,18.20
2018-06-21T02:05:15.978Z,18.20
2018-06-21T02:07:20.383Z,18.30
2018-06-21T02:09:24.686Z,18.30
2018-06-21T02:11:29.049Z,18.20
2018-06-21T02:13:33.271Z,18.20
2018-06-21T02:15:37.567Z,18.20
2018-06-21T02:17:42.086Z,18.10
2018-06-21T02:19:46.100Z,18.20
2018-06-21T02:21:50.357Z,18.20
2018-06-21T02:25:58.594Z,18.20
2018-06-21T02:28:02.950Z,18.20
2018-06-21T02:30:07.670Z,18.30
2018-06-21T02:32:11.941Z,18.20
2018-06-21T02:34:16.214Z,18.20
2018-06-21T02:36:20.982Z,18.20
2018-06-21T02:38:25.308Z,18.30
2018-06-21T02:40:30.055Z,18.20
2018-06-21T02:42:34.334Z,18.20
2018-06-21T02:44:38.372Z,18.10
2018-06-21T02:46:42.764Z,18.10
2018-06-21T02:48:47.181Z,18.10
2018-06-21T02:50:51.646Z,18.10
2018-06-21T02:52:55.943Z,18.00
2018-06-21T02:55:00.251Z,18.00
2018-06-21T02:57:05.331Z,18.00
2018-06-21T02:59:09.315Z,18.00
2018-06-21T03:01:13.563Z,18.20
2018-06-21T03:03:17.613Z,18.10
2018-06-21T03:05:21.928Z,18.10
2018-06-21T03:07:26.205Z,18.00
2018-06-21T03:09:30.971Z,18.00
2018-06-21T03:11:35.592Z,18.00
2018-06-21T03:13:39.826Z,18.00
2018-06-21T03:15:51.110Z,18.00
2018-06-21T03:17:55.376Z,18.00
2018-06-21T03:19:59.602Z,18.00
2018-06-21T03:22:04.237Z,17.90
2018-06-21T03:24:08.740Z,17.90
2018-06-21T03:26:12.751Z,17.90
2018-06-21T03:28:17.369Z,17.90
2018-06-21T03:30:21.609Z,17.80
2018-06-21T03:32:25.858Z,17.70
2018-06-21T03:36:34.537Z,17.80
2018-06-21T03:38:38.816Z,17.80
2018-06-21T03:40:43.102Z,17.60
2018-06-21T03:42:47.441Z,17.60
2018-06-21T03:44:51.689Z,17.40
2018-06-21T03:46:55.963Z,17.30
2018-06-21T03:51:04.135Z,15.90
2018-06-21T03:53:08.386Z,15.80
2018-06-21T03:55:12.818Z,15.70
2018-06-21T03:57:17.097Z,15.80
2018-06-21T03:59:21.152Z,15.50
2018-06-21T04:01:25.497Z,15.50
2018-06-21T04:03:29.838Z,15.40
2018-06-21T04:05:34.103Z,15.30
2018-06-21T04:07:38.081Z,15.40
2018-06-21T04:09:42.999Z,15.40
2018-06-21T04:11:48.307Z,15.40
2018-06-21T04:13:53.766Z,15.40
2018-06-21T04:15:59.522Z,15.50
2018-06-21T04:18:04.863Z,15.50
2018-06-21T04:20:11.086Z,15.40
2018-06-21T04:22:17.540Z,15.50
2018-06-21T04:24:27.563Z,15.50
2018-06-21T04:26:34.074Z,15.40
2018-06-21T04:28:39.065Z,15.30
2018-06-21T04:30:44.541Z,15.30
2018-06-21T04:32:51.265Z,15.40
2018-06-21T04:34:56.286Z,15.30
2018-06-21T04:37:01.217Z,15.20
2018-06-21T04:39:08.403Z,15.20
2018-06-21T04:41:12.856Z,15.10
2018-06-21T04:43:17.158Z,15.00
2018-06-21T04:45:21.792Z,15.10
2018-06-21T04:49:29.686Z,15.10
2018-06-21T04:51:33.979Z,15.10
2018-06-21T04:53:37.965Z,14.90
2018-06-21T04:55:42.186Z,14.90
2018-06-21T04:57:46.556Z,14.90
2018-06-21T04:59:50.861Z,14.90
2018-06-21T05:01:55.154Z,14.90
2018-06-21T05:03:59.470Z,15.00
2018-06-21T05:06:04.335Z,14.90
2018-06-21T05:08:08.298Z,15.00
2018-06-21T05:10:12.313Z,14.90
2018-06-21T05:12:20.910Z,14.60
2018-06-21T05:14:25.207Z,14.50
2018-06-21T05:16:29.454Z,14.50
2018-06-21T05:18:33.709Z,14.30
2018-06-21T05:20:37.986Z,14.10
2018-06-21T05:22:42.271Z,14.20
2018-06-21T05:24:46.850Z,14.20
2018-06-21T05:26:51.103Z,14.30
2018-06-21T05:28:55.386Z,14.30
2018-06-21T05:30:59.662Z,14.30
2018-06-21T05:33:03.928Z,14.20
2018-06-21T05:35:08.192Z,14.10
2018-06-21T05:37:12.714Z,14.20
2018-06-21T05:39:17.171Z,15.50
2018-06-21T05:41:21.917Z,15.60
2018-06-21T05:43:26.179Z,15.50
2018-06-21T05:45:30.181Z,15.40
2018-06-21T05:47:35.231Z,15.40
2018-06-21T05:49:39.597Z,15.20
2018-06-21T05:51:43.810Z,15.30
2018-06-21T05:53:48.124Z,15.40
2018-06-21T05:55:52.774Z,15.20
2018-06-21T05:57:56.821Z,15.00
2018-06-21T06:00:01.075Z,15.10
2018-06-21T06:02:05.430Z,15.10
2018-06-21T06:04:09.691Z,15.00
2018-06-21T06:06:14.269Z,15.00
2018-06-21T06:08:18.607Z,15.00
2018-06-21T06:10:23.251Z,15.00
2018-06-21T06:12:27.549Z,14.90
2018-06-21T06:14:31.790Z,14.60
2018-06-21T06:16:36.015Z,14.40
2018-06-21T06:18:40.009Z,14.40
2018-06-21T06:20:44.306Z,14.40
2018-06-21T06:22:48.266Z,14.30
2018-06-21T06:24:52.508Z,14.30
2018-06-21T06:26:56.830Z,14.40
2018-06-21T06:29:01.109Z,14.40
2018-06-21T06:31:05.619Z,14.40
2018-06-21T06:33:09.866Z,14.50
2018-06-21T06:35:14.123Z,14.60
2018-06-21T06:37:18.370Z,14.60
2018-06-21T06:39:22.416Z,14.40
2018-06-21T06:41:26.462Z,14.40
2018-06-21T06:43:30.455Z,14.40
2018-06-21T06:45:34.722Z,14.30
2018-06-21T06:47:38.772Z,14.60
2018-06-21T06:49:43.058Z,14.50
2018-06-21T06:51:47.310Z,14.60
2018-06-21T06:53:51.590Z,14.60
2018-06-21T06:55:56.234Z,14.60
2018-06-21T06:58:00.823Z,14.60
2018-06-21T07:00:06.258Z,14.50
2018-06-21T07:02:10.271Z,14.00
2018-06-21T07:06:18.387Z,14.30
2018-06-21T07:08:23.030Z,14.20
2018-06-21T07:10:27.603Z,14.20
2018-06-21T07:12:32.191Z,14.30
2018-06-21T07:14:36.600Z,14.30
2018-06-21T07:16:41.356Z,14.50
2018-06-21T07:18:45.374Z,14.60
2018-06-21T07:20:49.618Z,14.60
2018-06-21T07:22:53.931Z,14.50
2018-06-21T07:24:58.158Z,14.50
2018-06-21T07:27:02.442Z,14.70
2018-06-21T07:29:07.090Z,14.60
2018-06-21T07:31:11.340Z,14.50
2018-06-21T07:33:15.612Z,14.50
2018-06-21T07:35:19.875Z,14.60
2018-06-21T07:37:24.231Z,14.60
2018-06-21T07:39:28.430Z,14.50
2018-06-21T07:41:32.704Z,14.60
2018-06-21T07:43:36.966Z,14.50
2018-06-21T07:45:41.294Z,14.50
2018-06-21T07:47:45.591Z,14.40
2018-06-21T07:49:49.578Z,14.40
2018-06-21T07:51:53.846Z,14.60
2018-06-21T07:53:58.093Z,14.50
2018-06-21T07:56:02.546Z,14.40
2018-06-21T07:58:06.794Z,14.30
2018-06-21T08:00:11.050Z,14.50
2018-06-21T08:02:15.315Z,14.50
2018-06-21T08:04:19.605Z,14.60
2018-06-21T08:06:23.852Z,14.40
2018-06-21T08:08:28.095Z,14.40
2018-06-21T08:10:32.844Z,14.60
2018-06-21T08:12:37.039Z,14.30
2018-06-21T08:14:41.472Z,14.20
2018-06-21T08:16:45.811Z,14.20
2018-06-21T08:18:50.046Z,14.10
2018-06-21T08:20:54.316Z,14.20
2018-06-21T08:22:58.834Z,14.30
2018-06-21T08:25:03.146Z,14.30
2018-06-21T08:27:07.687Z,14.40
2018-06-21T08:29:11.971Z,14.40
2018-06-21T08:31:15.930Z,14.20
2018-06-21T08:33:20.163Z,14.30
2018-06-21T08:37:28.874Z,14.10
2018-06-21T08:39:33.148Z,14.20
2018-06-21T08:41:37.789Z,14.20
2018-06-21T08:43:41.790Z,14.20
2018-06-21T08:45:46.089Z,14.10
2018-06-21T08:47:50.667Z,14.20
2018-06-21T08:51:58.995Z,14.20
2018-06-21T08:54:03.407Z,14.20
2018-06-21T08:56:08.086Z,14.20
2018-06-21T08:58:12.360Z,14.30
2018-06-21T09:00:17.051Z,14.30
2018-06-21T09:02:21.315Z,14.30
2018-06-21T09:04:25.554Z,14.20
2018-06-21T09:06:29.834Z,14.20
2018-06-21T09:08:34.424Z,14.30
2018-06-21T09:10:38.656Z,14.20
2018-06-21T09:12:42.910Z,14.20
2018-06-21T09:14:47.814Z,14.20
2018-06-21T09:16:52.458Z,14.10
2018-06-21T09:18:56.693Z,14.10
2018-06-21T09:21:01.593Z,14.20
2018-06-21T09:23:06.043Z,14.10
2018-06-21T09:25:10.278Z,14.10
2018-06-21T09:27:14.620Z,14.10
2018-06-21T09:29:18.838Z,14.10
2018-06-21T09:31:23.158Z,14.20
2018-06-21T09:33:27.406Z,14.20
2018-06-21T09:35:31.644Z,14.30
2018-06-21T09:37:41.095Z,14.30
2018-06-21T09:39:50.426Z,14.20
2018-06-21T09:42:00.290Z,14.30
2018-06-21T09:44:10.265Z,14.20
2018-06-21T09:46:20.058Z,14.20
2018-06-21T09:48:31.820Z,14.20
2018-06-21T09:50:36.062Z,14.10
2018-06-21T09:52:40.375Z,14.10
2018-06-21T09:54:44.622Z,14.10
2018-06-21T09:56:49.242Z,14.10
2018-06-21T09:58:53.523Z,14.10
2018-06-21T10:01:01.696Z,14.10
2018-06-21T10:03:05.838Z,14.20
2018-06-21T10:05:10.154Z,14.20
2018-06-21T10:07:14.115Z,14.20
2018-06-21T10:09:18.567Z,14.20
2018-06-21T10:11:23.025Z,14.60
2018-06-21T10:13:27.404Z,14.80
2018-06-21T10:15:31.625Z,14.90
2018-06-21T10:17:36.180Z,14.80
2018-06-21T10:19:41.567Z,14.80
2018-06-21T10:21:45.826Z,14.80
2018-06-21T10:23:49.815Z,14.60
2018-06-21T10:25:54.056Z,14.50
2018-06-21T10:27:58.322Z,12.80
2018-06-21T10:30:02.946Z,11.10
2018-06-21T10:32:07.531Z,10.80
2018-06-21T10:34:11.782Z,10.70
2018-06-21T10:36:16.098Z,10.70
2018-06-21T10:38:20.407Z,10.70
2018-06-21T10:40:24.653Z,10.80
2018-06-21T10:42:28.672Z,10.80
2018-06-21T10:44:32.931Z,10.80
2018-06-21T10:46:36.957Z,10.90
2018-06-21T10:48:41.255Z,11.10
2018-06-21T10:50:45.707Z,11.10
2018-06-21T10:52:50.010Z,11.10
2018-06-21T10:54:54.278Z,11.30
2018-06-21T10:56:58.612Z,11.30
2018-06-21T10:59:03.429Z,11.30
2018-06-21T11:01:07.886Z,11.40
2018-06-21T11:03:11.905Z,11.40
2018-06-21T11:05:16.376Z,11.50
2018-06-21T11:07:20.654Z,11.60
2018-06-21T11:09:24.642Z,11.50
2018-06-21T11:11:28.627Z,11.50
2018-06-21T11:13:32.900Z,11.50
2018-06-21T11:15:37.340Z,11.70
2018-06-21T11:17:41.552Z,11.60
2018-06-21T11:19:46.097Z,11.60
2018-06-21T11:21:50.373Z,11.60
2018-06-21T11:23:54.648Z,11.60
2018-06-21T11:25:58.682Z,11.60
2018-06-21T11:28:03.161Z,11.70
2018-06-21T11:30:08.009Z,11.80
2018-06-21T11:32:12.275Z,11.70
2018-06-21T11:34:16.565Z,11.70
2018-06-21T11:36:20.843Z,11.70
2018-06-21T11:40:29.070Z,11.50
2018-06-21T11:42:33.352Z,11.60
2018-06-21T11:44:37.897Z,11.60
2018-06-21T11:46:42.185Z,11.40
2018-06-21T11:48:46.595Z,11.30
2018-06-21T11:50:50.865Z,11.40
2018-06-21T11:52:55.130Z,11.50
2018-06-21T11:54:59.386Z,11.50
2018-06-21T11:57:03.636Z,11.70
2018-06-21T11:59:07.939Z,11.70
2018-06-21T12:01:12.817Z,11.90
2018-06-21T12:03:17.254Z,12.10
2018-06-21T12:05:21.715Z,12.50
2018-06-21T12:07:25.687Z,12.20
2018-06-21T12:09:30.147Z,12.30
2018-06-21T12:11:34.397Z,12.90
2018-06-21T12:13:38.834Z,13.00
2018-06-21T12:15:43.494Z,12.50
2018-06-21T12:17:47.754Z,12.50
2018-06-21T12:19:51.725Z,12.70
2018-06-21T12:21:55.698Z,12.70
2018-06-21T12:23:59.646Z,12.90
2018-06-21T12:26:04.010Z,13.20
2018-06-21T12:28:08.534Z,13.50
2018-06-21T12:30:12.736Z,13.30
2018-06-21T12:32:17.415Z,12.50
2018-06-21T12:36:25.571Z,12.30
2018-06-21T12:38:29.906Z,12.70
2018-06-21T12:40:34.198Z,12.60
2018-06-21T12:42:38.543Z,12.80
2018-06-21T12:44:42.947Z,12.80
2018-06-21T12:46:47.186Z,12.90
2018-06-21T12:48:51.654Z,13.10
2018-06-21T12:50:55.931Z,12.90
2018-06-21T12:53:00.210Z,12.70
2018-06-21T12:55:04.786Z,12.80
2018-06-21T12:57:09.272Z,12.90
2018-06-21T12:59:13.540Z,13.20
2018-06-21T13:01:17.862Z,12.90
2018-06-21T13:03:21.858Z,12.90
2018-06-21T13:05:26.217Z,12.80
2018-06-21T13:07:30.622Z,12.90
2018-06-21T13:09:46.319Z,13.20
2018-06-21T13:12:28.583Z,13.50
2018-06-21T13:14:32.583Z,13.60
2018-06-21T13:16:36.915Z,13.30
2018-06-21T13:18:40.926Z,13.20
2018-06-21T13:20:45.214Z,13.10
2018-06-21T13:22:49.480Z,13.30
2018-06-21T13:24:53.751Z,13.30
2018-06-21T13:26:58.004Z,13.20
2018-06-21T13:29:02.278Z,13.20
2018-06-21T13:31:06.700Z,13.40
2018-06-21T13:33:11.315Z,13.30
2018-06-21T13:35:15.642Z,13.60
2018-06-21T13:37:19.910Z,13.60
2018-06-21T13:39:24.163Z,13.70
2018-06-21T13:41:28.410Z,13.40
2018-06-21T13:43:32.646Z,13.10
2018-06-21T13:45:37.153Z,13.10
2018-06-21T13:47:41.154Z,13.60
2018-06-21T13:49:45.769Z,14.10
2018-06-21T13:51:50.603Z,13.80
2018-06-21T13:55:58.998Z,14.10
2018-06-21T13:58:03.248Z,14.00
2018-06-21T14:00:08.177Z,13.70
2018-06-21T14:02:12.525Z,14.10
2018-06-21T14:04:16.786Z,14.10
2018-06-21T14:06:21.101Z,14.10
2018-06-21T14:08:25.162Z,13.90
2018-06-21T14:10:29.258Z,13.80
2018-06-21T14:12:33.298Z,13.80
2018-06-21T14:14:37.571Z,13.90
2018-06-21T14:16:41.822Z,13.70
2018-06-21T14:18:46.128Z,13.90
2018-06-21T14:20:50.448Z,14.00
2018-06-21T14:22:54.866Z,13.60
2018-06-21T14:24:59.133Z,13.30
2018-06-21T14:27:03.395Z,13.20
2018-06-21T14:29:07.662Z,12.80
2018-06-21T14:31:11.922Z,12.80
2018-06-21T14:33:16.192Z,12.50
2018-06-21T14:35:20.692Z,12.30
2018-06-21T14:37:25.142Z,12.30
2018-06-21T14:39:29.768Z,11.40
2018-06-21T14:41:33.971Z,11.10
2018-06-21T14:43:38.273Z,10.80
2018-06-21T14:45:42.257Z,10.70
2018-06-21T14:47:46.297Z,10.60
2018-06-21T14:49:50.711Z,10.80
2018-06-21T14:51:54.716Z,11.10
2018-06-21T14:53:58.967Z,11.70
2018-06-21T14:56:03.250Z,12.00
2018-06-21T14:58:07.577Z,12.00
2018-06-21T15:00:12.120Z,12.10
2018-06-21T15:02:16.442Z,11.90
2018-06-21T15:04:20.716Z,12.20
2018-06-21T15:08:29.058Z,11.60
2018-06-21T15:10:33.330Z,11.60
2018-06-21T15:12:38.271Z,11.40
2018-06-21T15:14:42.800Z,11.30
2018-06-21T15:16:46.989Z,11.30
2018-06-21T15:18:51.263Z,11.50
2018-06-21T15:20:55.716Z,11.50
2018-06-21T15:23:00.309Z,11.50
2018-06-21T15:25:04.778Z,11.70
2018-06-21T15:27:09.229Z,12.00
2018-06-21T15:29:13.663Z,12.20
2018-06-21T15:31:18.124Z,12.20
2018-06-21T15:33:22.794Z,12.10
2018-06-21T15:35:27.055Z,12.50
2018-06-21T15:37:31.391Z,12.40
2018-06-21T15:39:35.638Z,12.50
2018-06-21T15:41:40.159Z,12.40
2018-06-21T15:43:44.389Z,12.70
2018-06-21T15:45:48.658Z,12.80
2018-06-21T15:47:53.283Z,12.80
2018-06-21T15:49:57.520Z,13.00
2018-06-21T15:52:02.103Z,12.50
2018-06-21T15:56:10.331Z,11.80
2018-06-21T15:58:14.601Z,11.50
2018-06-21T16:00:19.194Z,11.30
2018-06-21T16:02:23.499Z,11.40
2018-06-21T16:04:27.966Z,11.40
2018-06-21T16:06:32.574Z,11.50
2018-06-21T16:08:37.049Z,11.60
2018-06-21T16:10:41.503Z,11.70
2018-06-21T16:12:45.953Z,11.70
2018-06-21T16:14:50.034Z,11.60
2018-06-21T16:16:54.634Z,11.60
2018-06-21T16:18:58.893Z,11.40
2018-06-21T16:21:03.520Z,11.30
2018-06-21T16:23:07.933Z,11.10
2018-06-21T16:25:12.242Z,11.00
2018-06-21T16:27:16.654Z,11.00
2018-06-21T16:31:24.763Z,11.00
2018-06-21T16:33:29.490Z,10.90
2018-06-21T16:35:34.014Z,10.80
2018-06-21T16:39:42.123Z,11.00
2018-06-21T16:41:46.428Z,11.00
2018-06-21T16:43:50.662Z,11.10
2018-06-21T16:45:54.934Z,11.10
2018-06-21T16:47:59.283Z,11.10
2018-06-21T16:50:03.576Z,11.20
2018-06-21T16:52:07.827Z,11.90
2018-06-21T16:54:12.129Z,12.20
2018-06-21T16:56:16.434Z,12.40
2018-06-21T16:58:21.002Z,12.50
2018-06-21T17:04:33.038Z,13.00
2018-06-21T17:06:37.339Z,12.90
2018-06-21T17:08:41.600Z,13.00
2018-06-21T17:10:45.534Z,12.90
2018-06-21T17:12:49.946Z,12.90
2018-06-21T17:14:54.218Z,12.50
2018-06-21T17:16:58.510Z,12.20
2018-06-21T17:19:02.990Z,12.10
2018-06-21T17:21:07.227Z,12.10
2018-06-21T17:23:11.782Z,12.20
2018-06-21T17:25:16.053Z,12.40
2018-06-21T17:27:20.311Z,12.40
2018-06-21T17:29:24.580Z,12.50
2018-06-21T17:31:28.854Z,12.80
2018-06-21T17:33:33.160Z,13.30
2018-06-21T17:35:37.472Z,13.10
2018-06-21T17:37:41.470Z,13.30
2018-06-21T17:39:45.784Z,13.20
2018-06-21T17:41:50.207Z,13.70
2018-06-21T17:43:54.478Z,13.60
2018-06-21T17:45:58.853Z,13.60
2018-06-21T17:48:03.322Z,13.50
2018-06-21T17:50:07.577Z,13.20
2018-06-21T17:52:11.538Z,12.70
2018-06-21T17:54:15.677Z,12.60
2018-06-21T17:56:20.029Z,12.60
2018-06-21T17:58:24.478Z,12.50
2018-06-21T18:00:28.807Z,12.50
2018-06-21T18:02:33.252Z,12.50
2018-06-21T18:04:37.505Z,12.80
2018-06-21T18:06:41.946Z,12.90
2018-06-21T18:08:45.949Z,12.80
2018-06-21T18:10:50.258Z,12.70
2018-06-21T18:12:54.687Z,12.70
2018-06-21T18:14:59.420Z,12.50
2018-06-21T18:17:04.043Z,12.50
2018-06-21T18:19:08.298Z,12.50
2018-06-21T18:21:12.731Z,12.50
2018-06-21T18:23:17.664Z,12.60
2018-06-21T18:25:22.038Z,11.80
2018-06-21T18:27:26.375Z,11.10
2018-06-21T18:29:30.645Z,11.00
2018-06-21T18:31:34.954Z,10.90
2018-06-21T18:33:39.325Z,10.80
2018-06-21T18:35:43.943Z,10.90
2018-06-21T18:37:48.527Z,11.00
2018-06-21T18:39:52.802Z,11.10
2018-06-21T18:41:57.122Z,11.30
2018-06-21T18:44:01.401Z,11.50
2018-06-21T18:46:05.994Z,11.70
2018-06-21T18:48:10.282Z,11.70
2018-06-21T18:50:15.007Z,11.60
2018-06-21T18:52:19.247Z,11.70
2018-06-21T18:54:23.486Z,11.40
2018-06-21T18:56:27.450Z,11.50
2018-06-21T18:58:31.723Z,11.30
2018-06-21T19:00:36.245Z,11.20
2018-06-21T19:02:40.712Z,11.00
2018-06-21T19:04:45.818Z,10.80
2018-06-21T19:06:55.830Z,10.80
2018-06-21T19:09:05.148Z,10.70
2018-06-21T19:11:26.784Z,10.80
2018-06-21T19:13:31.163Z,10.80
2018-06-21T19:15:35.372Z,10.80
2018-06-21T19:17:39.935Z,10.90
2018-06-21T19:19:44.214Z,10.90
2018-06-21T19:21:48.517Z,10.90
2018-06-21T19:23:52.902Z,11.00
2018-06-21T19:25:57.158Z,11.10
2018-06-21T19:28:01.482Z,11.00
2018-06-21T19:30:06.257Z,11.00
2018-06-21T19:32:10.295Z,10.90
2018-06-21T19:34:14.502Z,10.90
2018-06-21T19:36:18.752Z,11.00
2018-06-21T19:38:23.103Z,11.00
2018-06-21T19:40:27.560Z,11.10
2018-06-21T19:42:31.811Z,11.10
2018-06-21T19:44:36.179Z,11.00
2018-06-21T19:46:40.477Z,11.10
2018-06-21T19:48:44.812Z,11.00
2018-06-21T19:50:49.122Z,11.10
2018-06-21T19:52:53.434Z,11.10
2018-06-21T19:54:57.431Z,11.20
2018-06-21T19:57:01.738Z,11.10
2018-06-21T19:59:06.015Z,11.00
2018-06-21T20:01:10.638Z,11.10
2018-06-21T20:03:14.949Z,11.00
2018-06-21T20:05:19.179Z,11.00
2018-06-21T20:09:28.050Z,11.00
2018-06-21T20:11:37.182Z,10.90
2018-06-21T20:13:45.311Z,11.00
2018-06-21T20:15:52.839Z,11.00
2018-06-21T20:17:56.915Z,11.10
2018-06-21T20:20:06.331Z,11.10
2018-06-21T20:22:10.291Z,11.00
2018-06-21T20:24:14.337Z,11.00
2018-06-21T20:26:19.459Z,11.00
2018-06-21T20:28:23.826Z,11.00
2018-06-21T20:30:28.286Z,10.90
2018-06-21T20:32:32.502Z,11.00
2018-06-21T20:34:36.938Z,11.00
2018-06-21T20:36:41.214Z,11.00
2018-06-21T20:38:46.516Z,11.00
2018-06-21T20:40:50.793Z,10.80
2018-06-21T20:42:55.085Z,11.00
2018-06-21T20:44:59.510Z,10.90
2018-06-21T20:47:03.516Z,10.90
2018-06-21T20:49:07.727Z,11.00
2018-06-21T20:51:11.706Z,11.00
2018-06-21T20:53:15.965Z,11.00
2018-06-21T20:55:20.238Z,10.90
2018-06-21T20:57:24.783Z,10.90
2018-06-21T20:59:29.068Z,11.00
2018-06-21T21:01:33.284Z,11.00
2018-06-21T21:03:37.320Z,10.90
2018-06-21T21:05:41.682Z,10.90
2018-06-21T21:07:48.590Z,11.00
2018-06-21T21:09:53.178Z,10.90
2018-06-21T21:11:57.457Z,11.00
2018-06-21T21:14:01.458Z,11.00
2018-06-21T21:16:05.789Z,11.00
2018-06-21T21:18:09.755Z,11.10
2018-06-21T21:20:13.711Z,11.10
2018-06-21T21:22:17.671Z,11.10
2018-06-21T21:24:21.894Z,11.10
2018-06-21T21:26:26.184Z,11.20
2018-06-21T21:28:30.525Z,11.20
2018-06-21T21:30:34.927Z,11.30
2018-06-21T21:32:39.118Z,11.30
2018-06-21T21:34:43.398Z,11.30
2018-06-21T21:36:47.998Z,11.40
2018-06-21T21:38:52.230Z,11.30
2018-06-21T21:40:56.198Z,11.40
2018-06-21T21:43:00.544Z,11.40
2018-06-21T21:45:05.025Z,11.40
2018-06-21T21:47:08.957Z,11.30
2018-06-21T21:49:13.445Z,11.40
2018-06-21T21:51:17.449Z,11.30
2018-06-21T21:53:21.674Z,11.20
2018-06-21T21:55:25.629Z,11.30
2018-06-21T21:57:29.574Z,11.20
2018-06-21T21:59:34.355Z,11.20
2018-06-21T22:01:39.014Z,11.20
2018-06-21T22:03:43.289Z,11.20
2018-06-21T22:05:47.893Z,11.10
2018-06-21T22:07:52.135Z,11.10
2018-06-21T22:09:56.366Z,11.10
2018-06-21T22:12:00.346Z,11.00
2018-06-21T22:14:04.662Z,10.60
2018-06-21T22:16:08.638Z,10.60
2018-06-21T22:18:12.903Z,10.60
2018-06-21T22:20:17.114Z,10.50
2018-06-21T22:22:21.349Z,10.50
2018-06-21T22:24:25.862Z,10.60
2018-06-21T22:26:30.107Z,10.50
2018-06-21T22:28:34.387Z,10.60
2018-06-21T22:30:38.618Z,10.50
2018-06-21T22:32:43.016Z,10.60
2018-06-21T22:34:47.210Z,10.60
2018-06-21T22:36:51.443Z,10.50
2018-06-21T22:38:55.670Z,10.50
2018-06-21T22:40:59.902Z,10.50
2018-06-21T22:43:04.506Z,10.50
2018-06-21T22:45:08.490Z,10.50
2018-06-21T22:47:12.438Z,10.50
2018-06-21T22:49:16.410Z,10.50
2018-06-21T22:51:20.414Z,10.50
2018-06-21T22:53:24.398Z,10.50
2018-06-21T22:55:28.614Z,10.60
2018-06-21T22:57:33.017Z,10.70
2018-06-21T22:59:36.970Z,10.80
2018-06-21T23:01:41.275Z,10.70
2018-06-21T23:03:45.890Z,10.80
2018-06-21T23:05:50.110Z,10.80
2018-06-21T23:07:54.203Z,10.80
2018-06-21T23:09:58.398Z,10.80
2018-06-21T23:12:02.752Z,10.80
2018-06-21T23:14:06.718Z,10.80
2018-06-21T23:16:10.950Z,10.90
2018-06-21T23:18:25.281Z,10.80
2018-06-21T23:20:29.296Z,10.90
2018-06-21T23:22:33.542Z,10.90
2018-06-21T23:24:37.523Z,10.90
2018-06-21T23:26:41.788Z,10.90
2018-06-21T23:28:46.169Z,10.90
2018-06-21T23:30:50.430Z,10.90
2018-06-21T23:32:54.666Z,10.80
2018-06-21T23:34:58.874Z,10.80
2018-06-21T23:37:03.114Z,10.80
2018-06-21T23:39:09.224Z,10.80
2018-06-21T23:41:13.465Z,10.80
2018-06-21T23:43:17.723Z,10.80
2018-06-21T23:45:21.997Z,10.80
2018-06-21T23:47:25.938Z,10.80
2018-06-21T23:49:30.517Z,10.70
2018-06-21T23:51:34.885Z,10.70
2018-06-21T23:53:38.858Z,10.80
2018-06-21T23:55:43.374Z,10.80
2018-06-21T23:57:47.657Z,10.80
2018-06-21T23:59:51.928Z,10.80
